createdAt,value
2022-10-23T00:00:02.677Z,10.2
2022-10-23T00:05:10.896Z,10.2
2022-10-23T00:10:19.209Z,10.2
2022-10-23T00:15:27.483Z,10.2
2022-10-23T00:20:35.782Z,10
2022-10-23T00:25:45.077Z,9
2022-10-23T00:30:52.535Z,8.8
2022-10-23T00:35:59.770Z,8.9
2022-10-23T00:41:07.048Z,8.9
2022-10-23T00:46:14.312Z,8.6
2022-10-23T00:51:21.578Z,9
2022-10-23T00:56:28.910Z,8.4
2022-10-23T01:01:36.166Z,8.7
2022-10-23T01:06:43.458Z,8.7
2022-10-23T01:11:50.762Z,8.6
2022-10-23T01:16:58.071Z,8.2
2022-10-23T01:22:05.423Z,8.2
2022-10-23T01:27:12.673Z,8.2
2022-10-23T01:32:19.986Z,8.2
2022-10-23T01:37:27.229Z,7.9
2022-10-23T01:42:34.558Z,8
2022-10-23T01:47:41.861Z,8.4
2022-10-23T01:52:49.197Z,8.1
2022-10-23T01:57:56.533Z,8.3
2022-10-23T02:03:03.831Z,8.3
2022-10-23T02:08:11.158Z,8.3
2022-10-23T02:13:18.473Z,8.2
2022-10-23T02:18:25.814Z,8
2022-10-23T02:23:33.145Z,8
2022-10-23T02:28:40.475Z,7.9
2022-10-23T02:33:47.763Z,7.7
2022-10-23T02:38:55.192Z,7.7
2022-10-23T02:44:02.598Z,8.2
2022-10-23T02:49:10.036Z,8.2
2022-10-23T02:54:17.472Z,8
2022-10-23T02:59:24.871Z,8.1
2022-10-23T03:04:32.273Z,8.4
2022-10-23T03:09:39.748Z,8.2
2022-10-23T03:14:47.116Z,8
2022-10-23T03:19:54.527Z,8.4
2022-10-23T03:25:01.923Z,8.3
2022-10-23T03:30:09.357Z,8.2
2022-10-23T03:35:16.752Z,7.7
2022-10-23T03:40:24.161Z,7.7
2022-10-23T03:45:31.726Z,7.4
2022-10-23T03:50:39.363Z,7.9
2022-10-23T03:55:46.867Z,7.7
2022-10-23T04:00:54.460Z,7.5
2022-10-23T04:06:02.030Z,7.1
2022-10-23T04:11:09.654Z,7.2
2022-10-23T04:16:17.195Z,6.8
2022-10-23T04:21:24.816Z,6.7
2022-10-23T04:26:32.436Z,6.7
2022-10-23T04:31:40.007Z,7.4
2022-10-23T04:36:47.607Z,7.2
2022-10-23T04:41:55.195Z,7
2022-10-23T04:47:02.751Z,7.3
2022-10-23T04:52:10.609Z,7.1
2022-10-23T04:57:18.439Z,7.4
2022-10-23T05:02:26.312Z,7.7
2022-10-23T05:07:34.224Z,7.4
2022-10-23T05:12:41.926Z,7.8
2022-10-23T05:17:49.777Z,7.4
2022-10-23T05:22:57.566Z,7.4
2022-10-23T05:28:05.339Z,7.3
2022-10-23T05:33:13.143Z,7.2
2022-10-23T05:38:20.999Z,6.7
2022-10-23T05:43:28.751Z,7
2022-10-23T05:48:36.549Z,6.9
2022-10-23T05:53:44.372Z,7.1
2022-10-23T05:58:52.816Z,7.2
2022-10-23T06:04:01.167Z,7.1
2022-10-23T06:09:09.598Z,7.4
2022-10-23T06:14:17.926Z,7.4
2022-10-23T06:19:26.308Z,7.7
2022-10-23T06:24:34.672Z,7.9
2022-10-23T06:29:43.006Z,8.2
2022-10-23T06:34:51.323Z,8.6
2022-10-23T06:39:59.694Z,8.6
2022-10-23T06:45:07.992Z,9
2022-10-23T06:50:16.371Z,9.2
2022-10-23T06:55:24.562Z,9.5
2022-10-23T07:00:32.878Z,9.9
2022-10-23T07:05:42.238Z,10.2
2022-10-23T07:10:49.417Z,10.3
2022-10-23T07:15:56.523Z,10.7
2022-10-23T07:21:03.672Z,11.6
2022-10-23T07:26:10.752Z,12.5
2022-10-23T07:31:17.830Z,13.4
2022-10-23T07:36:24.908Z,13.6
2022-10-23T07:41:31.958Z,14.1
2022-10-23T07:46:38.928Z,14.6
2022-10-23T07:51:45.900Z,14.9
2022-10-23T07:56:52.862Z,14.8
2022-10-23T08:01:59.749Z,14.9
2022-10-23T08:07:06.703Z,14.8
2022-10-23T08:12:13.596Z,14.9
2022-10-23T08:17:20.531Z,15.4
2022-10-23T08:22:27.421Z,16.1
2022-10-23T08:27:34.351Z,15.6
2022-10-23T08:32:41.232Z,15.6
2022-10-23T08:37:48.136Z,15.5
2022-10-23T08:42:54.999Z,15.5
2022-10-23T08:48:01.790Z,16.3
2022-10-23T08:53:08.630Z,17.1
2022-10-23T08:58:15.515Z,17.9
2022-10-23T09:03:22.269Z,17.4
2022-10-23T09:08:29.073Z,17.7
2022-10-23T09:13:35.868Z,17.5
2022-10-23T09:18:42.723Z,18.5
2022-10-23T09:23:49.580Z,18.8
2022-10-23T09:28:56.444Z,18.7
2022-10-23T09:34:03.330Z,18.4
2022-10-23T09:39:10.168Z,17.4
2022-10-23T09:44:16.989Z,17.5
2022-10-23T09:49:23.887Z,17.8
2022-10-23T09:54:30.720Z,18
2022-10-23T09:59:37.524Z,17.9
2022-10-23T10:04:44.366Z,17.1
2022-10-23T10:09:51.209Z,17.2
2022-10-23T10:14:58.044Z,17.4
2022-10-23T10:20:04.911Z,17.6
2022-10-23T10:25:11.823Z,17.9
2022-10-23T10:30:18.802Z,17.5
2022-10-23T10:35:25.704Z,18.1
2022-10-23T10:40:32.635Z,18.3
2022-10-23T10:45:39.562Z,18.3
2022-10-23T10:50:46.467Z,18.7
2022-10-23T10:55:53.392Z,19.9
2022-10-23T11:01:00.266Z,20.1
2022-10-23T11:06:07.152Z,19.8
2022-10-23T11:11:14.037Z,19.8
2022-10-23T11:16:20.907Z,19.6
2022-10-23T11:21:27.763Z,20.2
2022-10-23T11:26:34.592Z,20.3
2022-10-23T11:31:41.665Z,19.9
2022-10-23T11:36:48.744Z,19.8
2022-10-23T11:41:55.841Z,19.3
2022-10-23T11:57:16.981Z,18.5
2022-10-23T12:02:24.039Z,18.5
2022-10-23T12:07:31.113Z,18.4
2022-10-23T12:12:38.217Z,18.4
2022-10-23T12:17:45.293Z,18.8
2022-10-23T12:22:52.355Z,18.9
2022-10-23T12:27:59.442Z,19.6
2022-10-23T12:33:06.485Z,20.7
2022-10-23T12:38:14.165Z,20.6
2022-10-23T12:43:20.540Z,21.2
2022-10-23T12:48:27.357Z,20
2022-10-23T12:53:34.128Z,19.6
2022-10-23T12:58:40.875Z,19.1
2022-10-23T13:03:47.707Z,19.2
2022-10-23T13:08:54.469Z,19.4
2022-10-23T13:14:01.277Z,19.1
2022-10-23T13:19:08.135Z,19
2022-10-23T13:24:14.948Z,18.8
2022-10-23T13:29:21.799Z,18.7
2022-10-23T13:34:28.642Z,18.5
2022-10-23T13:39:35.518Z,18.4
2022-10-23T13:44:42.342Z,18.3
2022-10-23T13:49:49.203Z,18.2
2022-10-23T13:54:56.065Z,18.2
2022-10-23T14:00:02.956Z,18.2
2022-10-23T14:05:09.861Z,18
2022-10-23T14:10:16.745Z,17.8
2022-10-23T14:15:23.661Z,17.7
2022-10-23T14:20:30.552Z,17.7
2022-10-23T14:25:37.473Z,17.6
2022-10-23T14:30:44.374Z,17.5
2022-10-23T14:35:51.337Z,17.4
2022-10-23T14:40:58.326Z,17.3
2022-10-23T14:46:05.301Z,17.2
2022-10-23T14:51:12.519Z,17
2022-10-23T14:56:19.770Z,17
2022-10-23T15:01:27.045Z,16.9
2022-10-23T15:06:34.296Z,16.9
2022-10-23T15:11:41.589Z,16.9
2022-10-23T15:16:48.811Z,16.8
2022-10-23T15:21:56.030Z,16.6
2022-10-23T15:27:03.331Z,16.6
2022-10-23T15:32:10.505Z,16.6
2022-10-23T15:37:17.762Z,16.6
2022-10-23T15:42:24.986Z,16.6
2022-10-23T15:47:32.173Z,16.5
2022-10-23T15:52:39.454Z,16.5
2022-10-23T15:57:47.317Z,16.5
2022-10-23T16:02:53.816Z,16.4
2022-10-23T16:08:00.679Z,16.5
2022-10-23T16:13:07.583Z,16.4
2022-10-23T16:18:14.488Z,16.3
2022-10-23T16:23:21.378Z,16.2
2022-10-23T16:28:28.285Z,16.3
2022-10-23T16:33:35.223Z,16.3
2022-10-23T16:38:42.213Z,16.2
2022-10-23T16:43:49.188Z,16.3
2022-10-23T16:48:56.152Z,16.1
2022-10-23T16:54:03.133Z,16.3
2022-10-23T16:59:10.098Z,16.2
2022-10-23T17:04:17.065Z,16.1
2022-10-23T17:09:24.045Z,16.1
2022-10-23T17:14:30.993Z,16.1
2022-10-23T17:19:37.968Z,16
2022-10-23T17:24:44.905Z,15.9
2022-10-23T17:29:51.885Z,15.7
2022-10-23T17:34:58.859Z,15.6
2022-10-23T17:40:05.821Z,15.7
2022-10-23T17:45:12.853Z,15.9
2022-10-23T17:50:19.848Z,15.6
2022-10-23T17:55:26.870Z,15.6
2022-10-23T18:00:33.910Z,15.6
2022-10-23T18:05:40.896Z,15.4
2022-10-23T18:10:48.050Z,15.5
2022-10-23T18:15:55.200Z,15.5
2022-10-23T18:21:02.366Z,15.5
2022-10-23T18:26:09.482Z,15.5
2022-10-23T18:31:16.609Z,15.5
2022-10-23T18:36:23.699Z,15.4
2022-10-23T18:41:30.813Z,15.3
2022-10-23T18:46:37.960Z,15.3
2022-10-23T18:51:45.078Z,15.2
2022-10-23T18:56:52.206Z,15.1
2022-10-23T19:01:59.428Z,15.1
2022-10-23T19:07:06.534Z,15.1
2022-10-23T19:12:13.699Z,15
2022-10-23T19:17:21.226Z,14.9
2022-10-23T19:22:28.563Z,14.9
2022-10-23T19:27:35.919Z,14.9
2022-10-23T19:32:43.332Z,14.7
2022-10-23T19:37:50.792Z,14.9
2022-10-23T19:42:58.138Z,15
2022-10-23T19:48:05.537Z,14.9
2022-10-23T19:53:12.987Z,14.8
2022-10-23T19:58:20.349Z,14.9
2022-10-23T20:03:27.739Z,14.9
2022-10-23T20:08:35.133Z,14.8
2022-10-23T20:13:42.607Z,14.8
2022-10-23T20:18:49.963Z,14.9
2022-10-23T20:23:58.101Z,14.8
2022-10-23T20:29:06.008Z,14.8
2022-10-23T20:34:14.014Z,14.8
2022-10-23T20:39:22.006Z,14.8
2022-10-23T20:44:30.057Z,14.7
2022-10-23T20:49:38.048Z,14.4
2022-10-23T20:54:46.161Z,14.4
2022-10-23T20:59:54.126Z,14.4
2022-10-23T21:05:02.102Z,14.5
2022-10-23T21:10:10.122Z,14.7
2022-10-23T21:15:18.160Z,14.9
2022-10-23T21:20:26.214Z,14.9
2022-10-23T21:25:34.180Z,14.9
2022-10-23T21:30:43.211Z,14.9
2022-10-23T21:35:50.497Z,14.7
2022-10-23T21:40:57.562Z,14.6
2022-10-23T21:46:04.603Z,14.6
2022-10-23T21:51:11.640Z,13.9
2022-10-23T21:56:18.709Z,13.8
2022-10-23T22:01:25.785Z,13.8
2022-10-23T22:06:32.848Z,13.7
2022-10-23T22:11:39.944Z,13.7
2022-10-23T22:16:47.039Z,13.7
2022-10-23T22:21:54.139Z,13.6
2022-10-23T22:27:01.249Z,13.6
2022-10-23T22:32:08.408Z,13.6
2022-10-23T22:37:15.429Z,13.6
2022-10-23T22:42:22.571Z,13.7
2022-10-23T22:47:29.655Z,13.7
2022-10-23T22:52:36.766Z,13.6
2022-10-23T22:57:43.879Z,13.6
2022-10-23T23:02:51.039Z,13.5
2022-10-23T23:07:58.080Z,13.6
2022-10-23T23:13:05.196Z,13.6
2022-10-23T23:18:12.251Z,13.9
2022-10-23T23:23:19.352Z,13.9
2022-10-23T23:28:26.421Z,13.9
2022-10-23T23:33:33.541Z,13.9
2022-10-23T23:38:40.611Z,13.9
2022-10-23T23:43:47.840Z,13.9
2022-10-23T23:48:55.051Z,13.7
2022-10-23T23:54:02.307Z,13.7
2022-10-23T23:59:09.543Z,13.6
